sensor_id;sensor_type;location;lat;lon;timestamp;P1;durP1;ratioP1;P2;durP2;ratioP2
48925;SDS011;39838;59.938;30.642;2023-12-04T00:00:00;24.08;;;12.93;;
48925;SDS011;39838;59.938;30.642;2023-12-04T00:02:30;25.80;;;10.95;;
48925;SDS011;39838;59.938;30.642;2023-12-04T00:04:58;23.45;;;12.18;;
48925;SDS011;39838;59.938;30.642;2023-12-04T00:07:25;25.40;;;12.35;;
48925;SDS011;39838;59.938;30.642;2023-12-04T00:09:52;23.27;;;12.13;;
48925;SDS011;39838;59.938;30.642;2023-12-04T00:12:19;24.30;;;11.98;;
48925;SDS011;39838;59.938;30.642;2023-12-04T00:14:48;25.08;;;11.95;;
48925;SDS011;39838;59.938;30.642;2023-12-04T00:17:16;26.25;;;11.70;;
48925;SDS011;39838;59.938;30.642;2023-12-04T00:19:44;24.58;;;11.98;;
48925;SDS011;39838;59.938;30.642;2023-12-04T00:22:11;25.52;;;12.68;;
48925;SDS011;39838;59.938;30.642;2023-12-04T00:24:38;26.40;;;12.25;;
48925;SDS011;39838;59.938;30.642;2023-12-04T00:27:05;22.45;;;11.20;;
48925;SDS011;39838;59.938;30.642;2023-12-04T00:29:33;23.38;;;11.77;;
48925;SDS011;39838;59.938;30.642;2023-12-04T00:32:01;23.00;;;11.88;;
48925;SDS011;39838;59.938;30.642;2023-12-04T00:34:29;23.35;;;11.43;;
48925;SDS011;39838;59.938;30.642;2023-12-04T00:36:56;24.55;;;12.07;;
48925;SDS011;39838;59.938;30.642;2023-12-04T00:39:24;23.90;;;11.75;;
48925;SDS011;39838;59.938;30.642;2023-12-04T00:41:51;26.17;;;12.50;;
48925;SDS011;39838;59.938;30.642;2023-12-04T00:44:18;23.15;;;11.75;;
48925;SDS011;39838;59.938;30.642;2023-12-04T00:46:45;21.75;;;11.48;;
48925;SDS011;39838;59.938;30.642;2023-12-04T00:49:14;23.55;;;11.65;;
48925;SDS011;39838;59.938;30.642;2023-12-04T00:51:42;23.42;;;11.00;;
48925;SDS011;39838;59.938;30.642;2023-12-04T00:54:09;28.48;;;12.15;;
48925;SDS011;39838;59.938;30.642;2023-12-04T00:56:37;26.52;;;12.05;;
48925;SDS011;39838;59.938;30.642;2023-12-04T00:59:05;22.35;;;11.50;;
48925;SDS011;39838;59.938;30.642;2023-12-04T01:01:34;23.00;;;11.52;;
48925;SDS011;39838;59.938;30.642;2023-12-04T01:04:02;24.98;;;11.75;;
48925;SDS011;39838;59.938;30.642;2023-12-04T01:06:31;22.17;;;11.40;;
48925;SDS011;39838;59.938;30.642;2023-12-04T01:08:58;24.90;;;12.50;;
48925;SDS011;39838;59.938;30.642;2023-12-04T01:11:25;24.17;;;12.40;;
48925;SDS011;39838;59.938;30.642;2023-12-04T01:13:53;24.80;;;12.88;;
48925;SDS011;39838;59.938;30.642;2023-12-04T01:16:20;22.08;;;11.43;;
48925;SDS011;39838;59.938;30.642;2023-12-04T01:18:47;22.77;;;12.00;;
48925;SDS011;39838;59.938;30.642;2023-12-04T01:21:15;22.30;;;11.75;;
48925;SDS011;39838;59.938;30.642;2023-12-04T01:23:43;23.70;;;11.70;;
48925;SDS011;39838;59.938;30.642;2023-12-04T01:26:11;30.33;;;13.70;;
48925;SDS011;39838;59.938;30.642;2023-12-04T01:28:38;27.38;;;14.25;;
48925;SDS011;39838;59.938;30.642;2023-12-04T01:31:06;24.75;;;12.10;;
48925;SDS011;39838;59.938;30.642;2023-12-04T01:33:33;25.75;;;13.00;;
48925;SDS011;39838;59.938;30.642;2023-12-04T01:36:01;26.00;;;12.82;;
48925;SDS011;39838;59.938;30.642;2023-12-04T01:38:28;23.27;;;12.00;;
48925;SDS011;39838;59.938;30.642;2023-12-04T01:40:57;22.70;;;11.35;;
48925;SDS011;39838;59.938;30.642;2023-12-04T01:43:25;23.95;;;11.50;;
48925;SDS011;39838;59.938;30.642;2023-12-04T01:45:53;22.50;;;11.55;;
48925;SDS011;39838;59.938;30.642;2023-12-04T01:48:21;23.70;;;11.80;;
48925;SDS011;39838;59.938;30.642;2023-12-04T01:50:49;22.83;;;11.88;;
48925;SDS011;39838;59.938;30.642;2023-12-04T01:53:17;25.25;;;12.48;;
48925;SDS011;39838;59.938;30.642;2023-12-04T01:55:45;23.10;;;11.55;;
48925;SDS011;39838;59.938;30.642;2023-12-04T01:58:15;22.20;;;11.98;;
48925;SDS011;39838;59.938;30.642;2023-12-04T02:00:42;24.25;;;11.60;;
48925;SDS011;39838;59.938;30.642;2023-12-04T02:03:10;22.38;;;10.80;;
48925;SDS011;39838;59.938;30.642;2023-12-04T02:05:36;22.42;;;11.40;;
48925;SDS011;39838;59.938;30.642;2023-12-04T02:08:04;26.00;;;12.80;;
48925;SDS011;39838;59.938;30.642;2023-12-04T02:10:31;24.20;;;12.05;;
48925;SDS011;39838;59.938;30.642;2023-12-04T02:12:59;23.67;;;11.18;;
48925;SDS011;39838;59.938;30.642;2023-12-04T02:15:28;25.30;;;11.52;;
48925;SDS011;39838;59.938;30.642;2023-12-04T02:17:55;23.65;;;12.32;;
48925;SDS011;39838;59.938;30.642;2023-12-04T02:20:30;24.60;;;12.05;;
48925;SDS011;39838;59.938;30.642;2023-12-04T02:22:58;23.75;;;12.23;;
48925;SDS011;39838;59.938;30.642;2023-12-04T02:25:27;23.35;;;11.88;;
48925;SDS011;39838;59.938;30.642;2023-12-04T02:27:55;23.75;;;11.85;;
48925;SDS011;39838;59.938;30.642;2023-12-04T02:30:26;23.00;;;11.65;;
48925;SDS011;39838;59.938;30.642;2023-12-04T02:32:57;21.10;;;11.02;;
48925;SDS011;39838;59.938;30.642;2023-12-04T02:35:27;23.85;;;11.00;;
48925;SDS011;39838;59.938;30.642;2023-12-04T02:37:58;25.08;;;10.90;;
48925;SDS011;39838;59.938;30.642;2023-12-04T02:40:28;23.00;;;10.27;;
48925;SDS011;39838;59.938;30.642;2023-12-04T02:42:56;19.85;;;10.35;;
48925;SDS011;39838;59.938;30.642;2023-12-04T02:45:23;20.77;;;10.85;;
48925;SDS011;39838;59.938;30.642;2023-12-04T02:47:50;21.38;;;10.75;;
48925;SDS011;39838;59.938;30.642;2023-12-04T02:50:18;21.13;;;10.90;;
48925;SDS011;39838;59.938;30.642;2023-12-04T02:52:45;24.73;;;11.40;;
48925;SDS011;39838;59.938;30.642;2023-12-04T02:55:12;21.45;;;10.50;;
48925;SDS011;39838;59.938;30.642;2023-12-04T02:57:41;19.65;;;10.15;;
48925;SDS011;39838;59.938;30.642;2023-12-04T03:00:09;21.35;;;10.30;;
48925;SDS011;39838;59.938;30.642;2023-12-04T03:02:37;23.13;;;10.80;;
48925;SDS011;39838;59.938;30.642;2023-12-04T03:05:04;20.50;;;10.55;;
48925;SDS011;39838;59.938;30.642;2023-12-04T03:07:32;19.05;;;9.93;;
48925;SDS011;39838;59.938;30.642;2023-12-04T03:09:59;20.95;;;9.52;;
48925;SDS011;39838;59.938;30.642;2023-12-04T03:12:29;20.45;;;10.02;;
48925;SDS011;39838;59.938;30.642;2023-12-04T03:14:58;20.33;;;10.75;;
48925;SDS011;39838;59.938;30.642;2023-12-04T03:17:26;23.65;;;10.50;;
48925;SDS011;39838;59.938;30.642;2023-12-04T03:19:53;20.30;;;10.27;;
48925;SDS011;39838;59.938;30.642;2023-12-04T03:22:20;20.38;;;10.02;;
48925;SDS011;39838;59.938;30.642;2023-12-04T03:24:48;20.70;;;9.90;;
48925;SDS011;39838;59.938;30.642;2023-12-04T03:27:15;19.23;;;9.95;;
48925;SDS011;39838;59.938;30.642;2023-12-04T03:29:42;23.33;;;10.23;;
48925;SDS011;39838;59.938;30.642;2023-12-04T03:32:11;24.55;;;10.25;;
48925;SDS011;39838;59.938;30.642;2023-12-04T03:34:39;19.17;;;10.00;;
48925;SDS011;39838;59.938;30.642;2023-12-04T03:37:06;21.00;;;10.25;;
48925;SDS011;39838;59.938;30.642;2023-12-04T03:39:33;21.55;;;10.18;;
48925;SDS011;39838;59.938;30.642;2023-12-04T03:42:00;22.08;;;10.48;;
48925;SDS011;39838;59.938;30.642;2023-12-04T03:44:28;20.67;;;10.25;;
48925;SDS011;39838;59.938;30.642;2023-12-04T03:46:55;21.13;;;10.65;;
48925;SDS011;39838;59.938;30.642;2023-12-04T03:49:24;24.17;;;10.82;;
48925;SDS011;39838;59.938;30.642;2023-12-04T03:51:51;22.65;;;10.55;;
48925;SDS011;39838;59.938;30.642;2023-12-04T03:54:18;18.70;;;10.43;;
48925;SDS011;39838;59.938;30.642;2023-12-04T03:56:46;20.42;;;10.63;;
48925;SDS011;39838;59.938;30.642;2023-12-04T03:59:13;18.45;;;9.55;;
48925;SDS011;39838;59.938;30.642;2023-12-04T04:01:40;22.00;;;10.88;;
48925;SDS011;39838;59.938;30.642;2023-12-04T04:04:07;18.73;;;10.27;;
48925;SDS011;39838;59.938;30.642;2023-12-04T04:06:36;21.60;;;9.90;;
48925;SDS011;39838;59.938;30.642;2023-12-04T04:09:04;18.73;;;9.45;;
48925;SDS011;39838;59.938;30.642;2023-12-04T04:11:32;17.25;;;9.60;;
48925;SDS011;39838;59.938;30.642;2023-12-04T04:13:59;19.77;;;9.98;;
48925;SDS011;39838;59.938;30.642;2023-12-04T04:16:26;24.80;;;11.43;;
48925;SDS011;39838;59.938;30.642;2023-12-04T04:18:53;22.13;;;10.57;;
48925;SDS011;39838;59.938;30.642;2023-12-04T04:21:21;19.88;;;9.95;;
48925;SDS011;39838;59.938;30.642;2023-12-04T04:23:49;20.77;;;10.45;;
48925;SDS011;39838;59.938;30.642;2023-12-04T04:26:19;19.92;;;10.10;;
48925;SDS011;39838;59.938;30.642;2023-12-04T04:28:46;20.33;;;10.70;;
48925;SDS011;39838;59.938;30.642;2023-12-04T04:31:13;24.38;;;12.15;;
48925;SDS011;39838;59.938;30.642;2023-12-04T04:33:40;25.67;;;11.57;;
48925;SDS011;39838;59.938;30.642;2023-12-04T04:36:09;23.92;;;11.90;;
48925;SDS011;39838;59.938;30.642;2023-12-04T04:38:36;25.73;;;11.95;;
48925;SDS011;39838;59.938;30.642;2023-12-04T04:41:12;25.67;;;12.15;;
48925;SDS011;39838;59.938;30.642;2023-12-04T04:43:40;27.65;;;11.80;;
48925;SDS011;39838;59.938;30.642;2023-12-04T04:46:08;24.38;;;12.05;;
48925;SDS011;39838;59.938;30.642;2023-12-04T04:48:35;22.55;;;10.55;;
48925;SDS011;39838;59.938;30.642;2023-12-04T04:51:03;19.13;;;9.40;;
48925;SDS011;39838;59.938;30.642;2023-12-04T04:53:31;18.90;;;10.23;;
48925;SDS011;39838;59.938;30.642;2023-12-04T04:55:58;21.23;;;10.27;;
48925;SDS011;39838;59.938;30.642;2023-12-04T04:58:27;20.13;;;10.13;;
48925;SDS011;39838;59.938;30.642;2023-12-04T05:00:55;20.17;;;10.05;;
48925;SDS011;39838;59.938;30.642;2023-12-04T05:03:22;21.92;;;10.00;;
48925;SDS011;39838;59.938;30.642;2023-12-04T05:05:49;20.63;;;10.48;;
48925;SDS011;39838;59.938;30.642;2023-12-04T05:08:16;20.98;;;9.68;;
48925;SDS011;39838;59.938;30.642;2023-12-04T05:10:44;17.85;;;9.85;;
48925;SDS011;39838;59.938;30.642;2023-12-04T05:13:11;16.95;;;9.63;;
48925;SDS011;39838;59.938;30.642;2023-12-04T05:15:40;20.95;;;10.05;;
48925;SDS011;39838;59.938;30.642;2023-12-04T05:18:07;17.23;;;9.23;;
48925;SDS011;39838;59.938;30.642;2023-12-04T05:20:34;20.48;;;10.80;;
48925;SDS011;39838;59.938;30.642;2023-12-04T05:23:01;17.77;;;9.30;;
48925;SDS011;39838;59.938;30.642;2023-12-04T05:25:29;22.08;;;10.77;;
48925;SDS011;39838;59.938;30.642;2023-12-04T05:27:56;18.65;;;10.05;;
48925;SDS011;39838;59.938;30.642;2023-12-04T05:30:23;23.13;;;10.38;;
48925;SDS011;39838;59.938;30.642;2023-12-04T05:32:52;22.00;;;10.27;;
48925;SDS011;39838;59.938;30.642;2023-12-04T05:35:20;20.83;;;10.23;;
48925;SDS011;39838;59.938;30.642;2023-12-04T05:37:47;22.25;;;10.13;;
48925;SDS011;39838;59.938;30.642;2023-12-04T05:40:15;21.10;;;10.07;;
48925;SDS011;39838;59.938;30.642;2023-12-04T05:42:42;22.25;;;11.02;;
48925;SDS011;39838;59.938;30.642;2023-12-04T05:45:09;19.85;;;10.13;;
48925;SDS011;39838;59.938;30.642;2023-12-04T05:47:37;22.60;;;10.38;;
48925;SDS011;39838;59.938;30.642;2023-12-04T05:50:06;23.55;;;11.63;;
48925;SDS011;39838;59.938;30.642;2023-12-04T05:52:34;21.33;;;11.05;;
48925;SDS011;39838;59.938;30.642;2023-12-04T05:55:02;24.15;;;11.75;;
48925;SDS011;39838;59.938;30.642;2023-12-04T05:57:30;22.23;;;11.38;;
48925;SDS011;39838;59.938;30.642;2023-12-04T05:59:57;24.25;;;12.68;;
48925;SDS011;39838;59.938;30.642;2023-12-04T06:02:25;25.85;;;12.52;;
48925;SDS011;39838;59.938;30.642;2023-12-04T06:04:53;29.13;;;13.52;;
48925;SDS011;39838;59.938;30.642;2023-12-04T06:07:22;27.05;;;13.90;;
48925;SDS011;39838;59.938;30.642;2023-12-04T06:09:49;23.60;;;13.20;;
48925;SDS011;39838;59.938;30.642;2023-12-04T06:12:16;27.17;;;14.23;;
48925;SDS011;39838;59.938;30.642;2023-12-04T06:14:43;27.60;;;12.88;;
48925;SDS011;39838;59.938;30.642;2023-12-04T06:17:10;24.40;;;11.88;;
48925;SDS011;39838;59.938;30.642;2023-12-04T06:19:38;22.27;;;11.10;;
48925;SDS011;39838;59.938;30.642;2023-12-04T06:22:05;25.17;;;11.80;;
48925;SDS011;39838;59.938;30.642;2023-12-04T06:24:34;21.73;;;11.85;;
48925;SDS011;39838;59.938;30.642;2023-12-04T06:27:02;22.85;;;10.88;;
48925;SDS011;39838;59.938;30.642;2023-12-04T06:29:30;23.80;;;11.43;;
48925;SDS011;39838;59.938;30.642;2023-12-04T06:31:58;22.65;;;10.40;;
48925;SDS011;39838;59.938;30.642;2023-12-04T06:34:26;22.83;;;11.50;;
48925;SDS011;39838;59.938;30.642;2023-12-04T06:36:54;23.42;;;10.85;;
48925;SDS011;39838;59.938;30.642;2023-12-04T06:39:22;22.30;;;10.65;;
48925;SDS011;39838;59.938;30.642;2023-12-04T06:41:54;25.92;;;12.00;;
48925;SDS011;39838;59.938;30.642;2023-12-04T06:44:21;21.25;;;10.30;;
48925;SDS011;39838;59.938;30.642;2023-12-04T06:46:49;20.98;;;10.32;;
48925;SDS011;39838;59.938;30.642;2023-12-04T06:49:19;25.05;;;11.00;;
48925;SDS011;39838;59.938;30.642;2023-12-04T06:51:47;19.90;;;10.68;;
48925;SDS011;39838;59.938;30.642;2023-12-04T06:54:15;18.27;;;10.20;;
48925;SDS011;39838;59.938;30.642;2023-12-04T06:56:43;20.02;;;10.57;;
48925;SDS011;39838;59.938;30.642;2023-12-04T06:59:12;18.77;;;9.55;;
48925;SDS011;39838;59.938;30.642;2023-12-04T07:01:39;25.05;;;10.60;;
48925;SDS011;39838;59.938;30.642;2023-12-04T07:04:06;20.30;;;9.98;;
48925;SDS011;39838;59.938;30.642;2023-12-04T07:06:35;19.75;;;9.88;;
48925;SDS011;39838;59.938;30.642;2023-12-04T07:09:03;19.00;;;9.85;;
48925;SDS011;39838;59.938;30.642;2023-12-04T07:11:30;20.80;;;9.75;;
48925;SDS011;39838;59.938;30.642;2023-12-04T07:13:58;19.55;;;10.25;;
48925;SDS011;39838;59.938;30.642;2023-12-04T07:16:27;21.80;;;10.25;;
48925;SDS011;39838;59.938;30.642;2023-12-04T07:18:54;18.83;;;10.63;;
48925;SDS011;39838;59.938;30.642;2023-12-04T07:21:21;18.27;;;10.02;;
48925;SDS011;39838;59.938;30.642;2023-12-04T07:23:49;20.88;;;9.82;;
48925;SDS011;39838;59.938;30.642;2023-12-04T07:26:16;19.45;;;9.50;;
48925;SDS011;39838;59.938;30.642;2023-12-04T07:28:43;23.13;;;10.60;;
48925;SDS011;39838;59.938;30.642;2023-12-04T07:31:11;20.27;;;10.65;;
48925;SDS011;39838;59.938;30.642;2023-12-04T07:33:39;20.98;;;10.73;;
48925;SDS011;39838;59.938;30.642;2023-12-04T07:36:07;19.25;;;10.20;;
48925;SDS011;39838;59.938;30.642;2023-12-04T07:38:34;23.58;;;11.15;;
48925;SDS011;39838;59.938;30.642;2023-12-04T07:41:02;23.08;;;11.38;;
48925;SDS011;39838;59.938;30.642;2023-12-04T07:43:29;22.63;;;11.40;;
48925;SDS011;39838;59.938;30.642;2023-12-04T07:45:57;23.77;;;11.82;;
48925;SDS011;39838;59.938;30.642;2023-12-04T07:48:24;23.90;;;11.48;;
48925;SDS011;39838;59.938;30.642;2023-12-04T07:50:53;23.77;;;11.25;;
48925;SDS011;39838;59.938;30.642;2023-12-04T07:53:20;22.33;;;10.90;;
48925;SDS011;39838;59.938;30.642;2023-12-04T07:55:48;21.73;;;11.45;;
48925;SDS011;39838;59.938;30.642;2023-12-04T07:58:16;23.40;;;11.07;;
48925;SDS011;39838;59.938;30.642;2023-12-04T08:00:44;25.13;;;11.70;;
48925;SDS011;39838;59.938;30.642;2023-12-04T08:03:11;24.55;;;12.63;;
48925;SDS011;39838;59.938;30.642;2023-12-04T08:05:38;30.52;;;14.85;;
48925;SDS011;39838;59.938;30.642;2023-12-04T08:08:07;28.10;;;14.63;;
48925;SDS011;39838;59.938;30.642;2023-12-04T08:10:34;26.10;;;13.07;;
48925;SDS011;39838;59.938;30.642;2023-12-04T08:13:02;23.23;;;12.38;;
48925;SDS011;39838;59.938;30.642;2023-12-04T08:15:30;26.20;;;12.38;;
48925;SDS011;39838;59.938;30.642;2023-12-04T08:17:57;23.63;;;12.85;;
48925;SDS011;39838;59.938;30.642;2023-12-04T08:20:25;31.70;;;15.52;;
48925;SDS011;39838;59.938;30.642;2023-12-04T08:22:53;32.05;;;13.93;;
48925;SDS011;39838;59.938;30.642;2023-12-04T08:25:22;31.23;;;14.95;;
48925;SDS011;39838;59.938;30.642;2023-12-04T08:27:50;31.35;;;16.35;;
48925;SDS011;39838;59.938;30.642;2023-12-04T08:30:17;30.65;;;14.10;;
48925;SDS011;39838;59.938;30.642;2023-12-04T08:32:45;27.73;;;14.13;;
48925;SDS011;39838;59.938;30.642;2023-12-04T08:35:12;25.95;;;12.93;;
48925;SDS011;39838;59.938;30.642;2023-12-04T08:37:40;30.23;;;13.10;;
48925;SDS011;39838;59.938;30.642;2023-12-04T08:40:08;27.38;;;14.13;;
48925;SDS011;39838;59.938;30.642;2023-12-04T08:42:37;26.85;;;13.10;;
48925;SDS011;39838;59.938;30.642;2023-12-04T08:45:05;27.25;;;13.07;;
48925;SDS011;39838;59.938;30.642;2023-12-04T08:47:34;27.02;;;14.30;;
48925;SDS011;39838;59.938;30.642;2023-12-04T08:50:01;26.70;;;13.70;;
48925;SDS011;39838;59.938;30.642;2023-12-04T08:52:30;25.95;;;14.10;;
48925;SDS011;39838;59.938;30.642;2023-12-04T08:54:57;25.00;;;13.48;;
48925;SDS011;39838;59.938;30.642;2023-12-04T08:57:24;24.08;;;12.32;;
48925;SDS011;39838;59.938;30.642;2023-12-04T08:59:53;28.35;;;14.40;;
48925;SDS011;39838;59.938;30.642;2023-12-04T09:02:20;29.38;;;15.07;;
48925;SDS011;39838;59.938;30.642;2023-12-04T09:04:47;30.30;;;15.27;;
48925;SDS011;39838;59.938;30.642;2023-12-04T09:07:14;28.85;;;15.32;;
48925;SDS011;39838;59.938;30.642;2023-12-04T09:09:42;30.48;;;15.45;;
48925;SDS011;39838;59.938;30.642;2023-12-04T09:12:10;33.17;;;15.82;;
48925;SDS011;39838;59.938;30.642;2023-12-04T09:14:37;30.30;;;15.13;;
48925;SDS011;39838;59.938;30.642;2023-12-04T09:17:06;34.90;;;15.85;;
48925;SDS011;39838;59.938;30.642;2023-12-04T09:19:33;30.70;;;14.50;;
48925;SDS011;39838;59.938;30.642;2023-12-04T09:22:01;30.77;;;15.48;;
48925;SDS011;39838;59.938;30.642;2023-12-04T09:24:28;29.40;;;15.15;;
48925;SDS011;39838;59.938;30.642;2023-12-04T09:26:56;36.20;;;16.98;;
48925;SDS011;39838;59.938;30.642;2023-12-04T09:29:24;29.80;;;15.55;;
48925;SDS011;39838;59.938;30.642;2023-12-04T09:31:51;30.42;;;15.23;;
48925;SDS011;39838;59.938;30.642;2023-12-04T09:34:20;28.95;;;15.57;;
48925;SDS011;39838;59.938;30.642;2023-12-04T09:36:48;32.40;;;15.48;;
48925;SDS011;39838;59.938;30.642;2023-12-04T09:39:15;33.55;;;15.93;;
48925;SDS011;39838;59.938;30.642;2023-12-04T09:41:43;31.00;;;15.60;;
48925;SDS011;39838;59.938;30.642;2023-12-04T09:44:12;28.88;;;15.70;;
48925;SDS011;39838;59.938;30.642;2023-12-04T09:46:39;32.50;;;14.98;;
48925;SDS011;39838;59.938;30.642;2023-12-04T09:49:07;28.83;;;15.95;;
48925;SDS011;39838;59.938;30.642;2023-12-04T09:51:36;49.17;;;20.95;;
48925;SDS011;39838;59.938;30.642;2023-12-04T09:54:04;47.25;;;24.50;;
48925;SDS011;39838;59.938;30.642;2023-12-04T09:56:33;104.47;;;54.33;;
48925;SDS011;39838;59.938;30.642;2023-12-04T09:59:03;119.30;;;57.60;;
48925;SDS011;39838;59.938;30.642;2023-12-04T10:01:33;131.23;;;67.88;;
48925;SDS011;39838;59.938;30.642;2023-12-04T10:04:02;55.15;;;28.30;;
48925;SDS011;39838;59.938;30.642;2023-12-04T10:06:31;45.53;;;23.60;;
48925;SDS011;39838;59.938;30.642;2023-12-04T10:09:00;42.90;;;22.33;;
48925;SDS011;39838;59.938;30.642;2023-12-04T10:11:28;42.45;;;20.90;;
48925;SDS011;39838;59.938;30.642;2023-12-04T10:13:56;34.22;;;17.73;;
48925;SDS011;39838;59.938;30.642;2023-12-04T10:16:33;37.85;;;19.23;;
48925;SDS011;39838;59.938;30.642;2023-12-04T10:19:13;33.22;;;17.23;;
48925;SDS011;39838;59.938;30.642;2023-12-04T10:21:45;38.55;;;18.42;;
48925;SDS011;39838;59.938;30.642;2023-12-04T10:24:26;31.42;;;16.48;;
48925;SDS011;39838;59.938;30.642;2023-12-04T10:26:55;35.75;;;18.30;;
48925;SDS011;39838;59.938;30.642;2023-12-04T10:29:23;37.03;;;19.13;;
48925;SDS011;39838;59.938;30.642;2023-12-04T10:31:53;40.30;;;21.08;;
48925;SDS011;39838;59.938;30.642;2023-12-04T10:34:21;39.83;;;20.77;;
48925;SDS011;39838;59.938;30.642;2023-12-04T10:36:52;44.85;;;22.80;;
48925;SDS011;39838;59.938;30.642;2023-12-04T10:39:20;40.67;;;21.27;;
48925;SDS011;39838;59.938;30.642;2023-12-04T10:41:58;43.15;;;22.13;;
48925;SDS011;39838;59.938;30.642;2023-12-04T10:44:27;41.45;;;21.23;;
48925;SDS011;39838;59.938;30.642;2023-12-04T10:46:55;42.67;;;21.02;;
48925;SDS011;39838;59.938;30.642;2023-12-04T10:49:26;46.13;;;20.77;;
48925;SDS011;39838;59.938;30.642;2023-12-04T10:51:55;39.90;;;19.80;;
48925;SDS011;39838;59.938;30.642;2023-12-04T10:54:26;40.08;;;20.00;;
48925;SDS011;39838;59.938;30.642;2023-12-04T10:56:54;43.75;;;18.08;;
48925;SDS011;39838;59.938;30.642;2023-12-04T10:59:26;36.78;;;18.25;;
48925;SDS011;39838;59.938;30.642;2023-12-04T11:01:57;33.47;;;18.17;;
48925;SDS011;39838;59.938;30.642;2023-12-04T11:04:28;32.15;;;17.23;;
48925;SDS011;39838;59.938;30.642;2023-12-04T11:06:58;31.60;;;15.25;;
48925;SDS011;39838;59.938;30.642;2023-12-04T11:09:27;31.60;;;16.17;;
48925;SDS011;39838;59.938;30.642;2023-12-04T11:11:56;33.72;;;16.77;;
48925;SDS011;39838;59.938;30.642;2023-12-04T11:14:27;34.22;;;17.70;;
48925;SDS011;39838;59.938;30.642;2023-12-04T11:17:01;31.83;;;17.10;;
48925;SDS011;39838;59.938;30.642;2023-12-04T11:19:39;37.25;;;17.63;;
48925;SDS011;39838;59.938;30.642;2023-12-04T11:22:15;36.45;;;18.42;;
48925;SDS011;39838;59.938;30.642;2023-12-04T11:24:47;36.63;;;17.48;;
48925;SDS011;39838;59.938;30.642;2023-12-04T11:27:15;36.45;;;18.42;;
48925;SDS011;39838;59.938;30.642;2023-12-04T11:29:43;38.13;;;16.55;;
48925;SDS011;39838;59.938;30.642;2023-12-04T11:32:13;33.58;;;16.13;;
48925;SDS011;39838;59.938;30.642;2023-12-04T11:34:47;33.00;;;14.73;;
48925;SDS011;39838;59.938;30.642;2023-12-04T11:37:15;32.33;;;14.98;;
48925;SDS011;39838;59.938;30.642;2023-12-04T11:39:42;32.55;;;13.98;;
48925;SDS011;39838;59.938;30.642;2023-12-04T11:42:14;32.63;;;14.55;;
48925;SDS011;39838;59.938;30.642;2023-12-04T11:44:47;31.20;;;15.30;;
48925;SDS011;39838;59.938;30.642;2023-12-04T11:47:15;31.08;;;15.60;;
48925;SDS011;39838;59.938;30.642;2023-12-04T11:49:42;36.13;;;16.73;;
48925;SDS011;39838;59.938;30.642;2023-12-04T11:52:10;32.15;;;16.38;;
48925;SDS011;39838;59.938;30.642;2023-12-04T11:57:36;27.70;;;14.15;;
48925;SDS011;39838;59.938;30.642;2023-12-04T12:00:08;29.33;;;14.73;;
48925;SDS011;39838;59.938;30.642;2023-12-04T12:02:37;30.02;;;15.60;;
48925;SDS011;39838;59.938;30.642;2023-12-04T12:05:06;32.08;;;15.98;;
48925;SDS011;39838;59.938;30.642;2023-12-04T12:07:34;32.15;;;15.40;;
48925;SDS011;39838;59.938;30.642;2023-12-04T12:10:02;32.00;;;15.73;;
48925;SDS011;39838;59.938;30.642;2023-12-04T12:12:30;38.92;;;16.80;;
48925;SDS011;39838;59.938;30.642;2023-12-04T12:15:00;29.70;;;15.98;;
48925;SDS011;39838;59.938;30.642;2023-12-04T12:17:29;37.03;;;16.10;;
48925;SDS011;39838;59.938;30.642;2023-12-04T12:19:57;32.20;;;16.02;;
48925;SDS011;39838;59.938;30.642;2023-12-04T12:22:24;33.47;;;15.93;;
48925;SDS011;39838;59.938;30.642;2023-12-04T12:24:51;29.83;;;14.93;;
48925;SDS011;39838;59.938;30.642;2023-12-04T12:27:19;32.25;;;16.20;;
48925;SDS011;39838;59.938;30.642;2023-12-04T12:29:47;33.17;;;15.43;;
48925;SDS011;39838;59.938;30.642;2023-12-04T12:32:16;30.48;;;14.25;;
48925;SDS011;39838;59.938;30.642;2023-12-04T12:34:43;29.90;;;14.15;;
48925;SDS011;39838;59.938;30.642;2023-12-04T12:37:11;26.38;;;13.13;;
48925;SDS011;39838;59.938;30.642;2023-12-04T12:39:38;28.45;;;14.65;;
48925;SDS011;39838;59.938;30.642;2023-12-04T12:42:07;30.35;;;14.35;;
48925;SDS011;39838;59.938;30.642;2023-12-04T12:44:38;31.85;;;14.68;;
48925;SDS011;39838;59.938;30.642;2023-12-04T12:47:06;34.47;;;16.17;;
48925;SDS011;39838;59.938;30.642;2023-12-04T12:49:35;32.05;;;15.27;;
48925;SDS011;39838;59.938;30.642;2023-12-04T12:52:02;41.92;;;18.92;;
48925;SDS011;39838;59.938;30.642;2023-12-04T12:54:33;29.10;;;15.93;;
48925;SDS011;39838;59.938;30.642;2023-12-04T12:57:03;28.05;;;14.90;;
48925;SDS011;39838;59.938;30.642;2023-12-04T12:59:32;32.55;;;16.40;;
48925;SDS011;39838;59.938;30.642;2023-12-04T13:02:00;41.33;;;18.17;;
48925;SDS011;39838;59.938;30.642;2023-12-04T13:04:34;40.55;;;17.45;;
48925;SDS011;39838;59.938;30.642;2023-12-04T13:07:02;44.80;;;19.58;;
48925;SDS011;39838;59.938;30.642;2023-12-04T13:09:31;43.20;;;25.98;;
48925;SDS011;39838;59.938;30.642;2023-12-04T13:12:00;51.67;;;22.95;;
48925;SDS011;39838;59.938;30.642;2023-12-04T13:14:28;39.78;;;21.15;;
48925;SDS011;39838;59.938;30.642;2023-12-04T13:16:55;41.42;;;19.70;;
48925;SDS011;39838;59.938;30.642;2023-12-04T13:19:22;40.83;;;18.42;;
48925;SDS011;39838;59.938;30.642;2023-12-04T13:21:51;38.65;;;16.50;;
48925;SDS011;39838;59.938;30.642;2023-12-04T13:24:19;27.27;;;14.57;;
48925;SDS011;39838;59.938;30.642;2023-12-04T13:26:46;37.95;;;17.50;;
48925;SDS011;39838;59.938;30.642;2023-12-04T13:29:13;42.95;;;16.85;;
48925;SDS011;39838;59.938;30.642;2023-12-04T13:31:41;43.20;;;19.15;;
48925;SDS011;39838;59.938;30.642;2023-12-04T13:34:08;43.42;;;20.42;;
48925;SDS011;39838;59.938;30.642;2023-12-04T13:36:37;42.35;;;19.73;;
48925;SDS011;39838;59.938;30.642;2023-12-04T13:39:05;40.97;;;20.30;;
48925;SDS011;39838;59.938;30.642;2023-12-04T13:41:41;47.70;;;22.33;;
48925;SDS011;39838;59.938;30.642;2023-12-04T13:44:27;67.45;;;26.15;;
48925;SDS011;39838;59.938;30.642;2023-12-04T13:46:55;59.05;;;25.80;;
48925;SDS011;39838;59.938;30.642;2023-12-04T13:49:22;49.97;;;23.58;;
48925;SDS011;39838;59.938;30.642;2023-12-04T13:51:50;34.42;;;17.17;;
48925;SDS011;39838;59.938;30.642;2023-12-04T13:54:20;35.42;;;15.00;;
48925;SDS011;39838;59.938;30.642;2023-12-04T13:56:59;33.38;;;15.27;;
48925;SDS011;39838;59.938;30.642;2023-12-04T13:59:29;35.80;;;17.65;;
48925;SDS011;39838;59.938;30.642;2023-12-04T14:01:58;40.28;;;18.40;;
48925;SDS011;39838;59.938;30.642;2023-12-04T14:04:28;41.33;;;21.08;;
48925;SDS011;39838;59.938;30.642;2023-12-04T14:06:55;56.72;;;25.25;;
48925;SDS011;39838;59.938;30.642;2023-12-04T14:09:24;52.95;;;23.23;;
48925;SDS011;39838;59.938;30.642;2023-12-04T14:11:51;50.08;;;22.73;;
48925;SDS011;39838;59.938;30.642;2023-12-04T14:14:18;45.60;;;21.15;;
48925;SDS011;39838;59.938;30.642;2023-12-04T14:16:46;37.80;;;18.23;;